createdAt,value
2024-05-09T00:01:01.067Z,8.80
2024-05-09T00:05:07.099Z,8.70
2024-05-09T00:06:19.818Z,8.70
2024-05-09T00:08:22.195Z,8.70
2024-05-09T00:10:29.102Z,8.60
2024-05-09T00:12:22.010Z,8.70
2024-05-09T00:14:28.355Z,8.60
2024-05-09T00:16:22.286Z,8.60
2024-05-09T00:18:23.374Z,8.60
2024-05-09T00:20:28.122Z,8.60
2024-05-09T00:22:25.195Z,8.60
2024-05-09T00:24:22.073Z,8.60
2024-05-09T00:26:19.402Z,8.60
2024-05-09T00:28:28.214Z,8.60
2024-05-09T00:30:34.236Z,8.60
2024-05-09T00:32:22.369Z,8.60
2024-05-09T00:34:22.188Z,8.60
2024-05-09T00:36:28.396Z,8.60
2024-05-09T00:38:25.005Z,8.60
2024-05-09T00:40:30.876Z,8.50
2024-05-09T00:42:22.029Z,8.50
2024-05-09T00:44:25.351Z,8.50
2024-05-09T00:46:24.963Z,8.50
2024-05-09T00:48:21.627Z,8.50
2024-05-09T00:50:29.456Z,8.50
2024-05-09T00:52:21.974Z,8.50
2024-05-09T00:54:25.210Z,8.50
2024-05-09T00:56:25.415Z,8.50
2024-05-09T00:59:19.408Z,8.50
2024-05-09T01:00:38.144Z,8.50
2024-05-09T01:03:19.989Z,8.50
2024-05-09T01:05:25.302Z,8.60
2024-05-09T01:07:34.424Z,8.60
2024-05-09T01:09:28.650Z,8.60
2024-05-09T01:11:25.149Z,8.60
2024-05-09T01:13:28.394Z,8.60
2024-05-09T01:15:19.334Z,8.60
2024-05-09T01:16:33.509Z,8.60
2024-05-09T01:19:28.238Z,8.60
2024-05-09T01:20:39.045Z,8.60
2024-05-09T01:23:31.777Z,8.50
2024-05-09T01:25:19.318Z,8.50
2024-05-09T01:27:22.126Z,8.50
2024-05-09T01:29:22.085Z,8.40
2024-05-09T01:31:19.337Z,8.40
2024-05-09T01:33:22.243Z,8.40
2024-05-09T01:35:21.109Z,8.40
2024-05-09T01:37:22.070Z,8.40
2024-05-09T01:39:22.030Z,8.30
2024-05-09T01:41:19.426Z,8.30
2024-05-09T01:43:21.935Z,8.30
2024-05-09T01:45:23.478Z,8.30
2024-05-09T01:47:19.502Z,8.30
2024-05-09T01:49:22.453Z,8.20
2024-05-09T01:51:28.485Z,8.20
2024-05-09T01:53:23.005Z,8.20
2024-05-09T01:55:22.142Z,8.20
2024-05-09T01:57:19.769Z,8.20
2024-05-09T01:59:22.467Z,8.20
2024-05-09T02:01:28.633Z,8.20
2024-05-09T02:03:22.399Z,8.20
2024-05-09T02:05:22.379Z,8.20
2024-05-09T02:07:19.375Z,8.10
2024-05-09T02:09:22.426Z,8.10
2024-05-09T02:11:19.483Z,8.10
2024-05-09T02:13:28.565Z,8.10
2024-05-09T02:15:28.367Z,8.00
2024-05-09T02:17:19.452Z,8.00
2024-05-09T02:19:21.315Z,8.00
2024-05-09T02:21:19.400Z,7.90
2024-05-09T02:23:19.448Z,7.90
2024-05-09T02:25:19.349Z,7.90
2024-05-09T02:27:24.595Z,7.80
2024-05-09T02:29:22.124Z,7.70
2024-05-09T02:31:19.518Z,7.70
2024-05-09T02:33:23.227Z,7.70
2024-05-09T02:35:25.256Z,7.60
2024-05-09T02:37:22.124Z,7.60
2024-05-09T02:39:25.414Z,7.50
2024-05-09T02:41:19.473Z,7.50
2024-05-09T02:43:25.329Z,7.40
2024-05-09T02:45:25.158Z,7.40
2024-05-09T02:47:22.165Z,7.30
2024-05-09T02:49:19.535Z,7.30
2024-05-09T02:51:19.395Z,7.30
2024-05-09T02:53:22.213Z,7.60
2024-05-09T02:55:28.300Z,7.60
2024-05-09T02:57:19.426Z,7.60
2024-05-09T02:59:19.428Z,7.60
2024-05-09T03:01:19.450Z,7.60
2024-05-09T03:03:19.725Z,7.70
2024-05-09T03:05:22.194Z,7.60
2024-05-09T03:07:20.304Z,7.60
2024-05-09T03:09:19.385Z,7.60
2024-05-09T03:11:19.640Z,7.60
2024-05-09T03:13:19.426Z,7.60
2024-05-09T03:15:22.039Z,7.40
2024-05-09T03:17:19.481Z,7.40
2024-05-09T03:19:19.494Z,7.40
2024-05-09T03:21:19.406Z,7.40
2024-05-09T03:23:19.413Z,7.40
2024-05-09T03:25:28.174Z,7.30
2024-05-09T03:27:22.681Z,7.20
2024-05-09T03:29:33.880Z,7.20
2024-05-09T03:31:19.417Z,7.20
2024-05-09T03:33:25.737Z,7.20
2024-05-09T03:35:22.497Z,7.20
2024-05-09T03:37:22.457Z,7.20
2024-05-09T03:39:22.142Z,7.20
2024-05-09T03:41:22.283Z,7.20
2024-05-09T03:43:25.107Z,7.20
2024-05-09T03:45:22.325Z,7.20
2024-05-09T03:47:19.568Z,7.20
2024-05-09T03:49:22.529Z,7.20
2024-05-09T03:51:26.396Z,7.40
2024-05-09T03:53:25.484Z,7.40
2024-05-09T03:55:25.486Z,7.40
2024-05-09T03:57:21.298Z,7.40
2024-05-09T03:59:22.243Z,7.50
2024-05-09T04:01:28.383Z,7.60
2024-05-09T04:03:19.582Z,7.50
2024-05-09T04:05:19.975Z,7.50
2024-05-09T04:07:19.475Z,7.50
2024-05-09T04:09:19.447Z,7.60
2024-05-09T04:11:23.078Z,7.60
2024-05-09T04:13:19.492Z,7.70
2024-05-09T04:15:19.472Z,7.70
2024-05-09T04:17:19.540Z,7.70
2024-05-09T04:19:19.779Z,7.70
2024-05-09T04:21:19.555Z,7.70
2024-05-09T04:23:19.535Z,7.70
2024-05-09T04:25:19.606Z,7.70
2024-05-09T04:27:19.468Z,7.70
2024-05-09T04:29:19.539Z,7.80
2024-05-09T04:31:21.564Z,7.80
2024-05-09T04:34:19.529Z,7.80
2024-05-09T04:36:19.477Z,7.80
2024-05-09T04:38:19.518Z,7.90
2024-05-09T04:40:28.091Z,7.90
2024-05-09T04:42:22.847Z,7.90
2024-05-09T04:44:19.548Z,7.90
2024-05-09T04:46:19.581Z,7.90
2024-05-09T04:48:19.733Z,7.90
2024-05-09T04:50:29.064Z,8.00
2024-05-09T04:52:19.507Z,8.00
2024-05-09T04:54:26.275Z,8.00
2024-05-09T04:56:19.539Z,8.20
2024-05-09T04:58:19.532Z,8.20
2024-05-09T05:00:28.451Z,8.20
2024-05-09T05:02:19.713Z,8.20
2024-05-09T05:04:19.642Z,8.20
2024-05-09T05:06:19.534Z,8.20
2024-05-09T05:08:19.858Z,8.20
2024-05-09T05:10:25.231Z,8.20
2024-05-09T05:12:19.724Z,8.30
2024-05-09T05:14:19.552Z,8.30
2024-05-09T05:16:19.666Z,8.30
2024-05-09T05:18:19.938Z,8.20
2024-05-09T05:20:27.367Z,8.20
2024-05-09T05:22:19.904Z,8.10
2024-05-09T05:24:22.659Z,8.10
2024-05-09T05:26:19.520Z,8.10
2024-05-09T05:28:19.558Z,8.00
2024-05-09T05:30:25.020Z,8.10
2024-05-09T05:32:19.697Z,8.00
2024-05-09T05:34:19.441Z,8.00
2024-05-09T05:36:19.585Z,8.00
2024-05-09T05:38:27.431Z,8.00
2024-05-09T05:40:28.146Z,8.00
2024-05-09T05:42:19.503Z,8.00
2024-05-09T05:44:22.519Z,8.00
2024-05-09T05:46:19.570Z,8.00
2024-05-09T05:48:19.656Z,8.10
2024-05-09T05:50:27.385Z,8.10
2024-05-09T05:52:19.487Z,8.30
2024-05-09T05:55:57.729Z,8.30
2024-05-09T05:57:57.680Z,8.40
2024-05-09T05:59:57.640Z,8.40
2024-05-09T06:01:57.767Z,8.50
2024-05-09T06:03:57.668Z,8.50
2024-05-09T06:05:57.865Z,8.60
2024-05-09T06:07:57.838Z,8.70
2024-05-09T06:09:57.684Z,8.80
2024-05-09T06:12:02.828Z,8.90
2024-05-09T06:13:57.688Z,8.90
2024-05-09T06:15:57.637Z,9.00
2024-05-09T06:17:57.851Z,9.20
2024-05-09T06:19:58.240Z,9.40
2024-05-09T06:21:57.685Z,9.40
2024-05-09T06:23:57.838Z,9.40
2024-05-09T06:25:58.610Z,9.50
2024-05-09T06:27:58.949Z,9.70
2024-05-09T06:29:57.670Z,9.80
2024-05-09T06:32:00.178Z,9.80
2024-05-09T06:34:12.103Z,9.90
2024-05-09T06:35:57.743Z,9.90
2024-05-09T06:37:57.640Z,9.90
2024-05-09T06:39:57.650Z,9.90
2024-05-09T06:41:57.689Z,9.90
2024-05-09T06:43:57.716Z,9.90
2024-05-09T06:46:00.716Z,9.90
2024-05-09T06:47:57.862Z,10.80
2024-05-09T06:49:58.038Z,10.80
2024-05-09T06:51:57.866Z,10.80
2024-05-09T06:53:57.769Z,11.40
2024-05-09T06:55:57.750Z,11.40
2024-05-09T06:59:00.769Z,11.40
2024-05-09T07:00:57.886Z,11.40
2024-05-09T07:02:59.662Z,11.40
2024-05-09T07:04:57.860Z,11.40
2024-05-09T07:06:57.766Z,11.90
2024-05-09T07:08:57.742Z,11.90
2024-05-09T07:10:57.861Z,11.90
2024-05-09T07:12:57.809Z,11.90
2024-05-09T07:14:57.741Z,11.90
2024-05-09T07:17:02.421Z,11.90
2024-05-09T07:18:57.906Z,11.90
2024-05-09T07:20:19.957Z,11.90
2024-05-09T07:23:00.859Z,12.60
2024-05-09T07:24:58.249Z,12.60
2024-05-09T07:27:00.671Z,12.70
2024-05-09T07:29:00.846Z,12.70
2024-05-09T07:30:13.551Z,12.70
2024-05-09T07:32:57.952Z,12.80
2024-05-09T07:35:00.593Z,12.80
2024-05-09T07:36:09.005Z,12.80
2024-05-09T07:38:57.683Z,12.80
2024-05-09T07:41:01.042Z,12.80
2024-05-09T07:43:00.376Z,14.00
2024-05-09T07:45:14.545Z,14.00
2024-05-09T07:50:35.850Z,14.50
2024-05-09T07:53:29.287Z,15.00
2024-05-09T07:54:58.636Z,15.00
2024-05-09T07:57:00.869Z,15.00
2024-05-09T07:59:00.803Z,15.00
2024-05-09T08:01:00.512Z,15.00
2024-05-09T08:03:03.025Z,15.80
2024-05-09T08:05:00.664Z,15.60
2024-05-09T08:07:12.117Z,15.20
2024-05-09T08:09:05.331Z,15.20
2024-05-09T08:11:03.665Z,15.40
2024-05-09T08:13:00.492Z,15.60
2024-05-09T08:14:57.715Z,16.10
2024-05-09T08:17:00.841Z,16.10
2024-05-09T08:19:06.575Z,16.10
2024-05-09T08:20:57.685Z,16.10
2024-05-09T08:23:00.609Z,16.10
2024-05-09T08:24:57.779Z,16.10
2024-05-09T08:27:00.430Z,16.10
2024-05-09T08:29:00.606Z,16.10
2024-05-09T08:31:04.157Z,17.00
2024-05-09T08:32:57.834Z,17.20
2024-05-09T08:35:00.646Z,17.20
2024-05-09T08:37:06.136Z,16.70
2024-05-09T08:38:57.866Z,16.70
2024-05-09T08:41:12.068Z,17.40
2024-05-09T08:42:57.836Z,17.40
2024-05-09T08:44:57.873Z,17.40
2024-05-09T08:47:02.901Z,17.40
2024-05-09T08:48:57.947Z,17.40
2024-05-09T08:51:00.400Z,17.40
2024-05-09T08:52:57.935Z,17.90
2024-05-09T08:55:00.839Z,17.90
2024-05-09T08:57:12.089Z,17.90
2024-05-09T08:59:03.467Z,17.90
2024-05-09T09:00:57.943Z,16.70
2024-05-09T09:03:00.569Z,16.70
2024-05-09T09:05:00.707Z,16.70
2024-05-09T09:06:58.763Z,16.70
2024-05-09T09:09:09.946Z,17.60
2024-05-09T09:10:57.772Z,17.60
2024-05-09T09:13:00.844Z,17.60
2024-05-09T09:14:57.763Z,18.30
2024-05-09T09:16:58.787Z,18.30
2024-05-09T09:18:58.198Z,18.30
2024-05-09T09:21:02.183Z,18.30
2024-05-09T09:22:58.050Z,18.30
2024-05-09T09:24:57.863Z,18.30
2024-05-09T09:26:57.899Z,18.70
2024-05-09T09:28:57.888Z,18.70
2024-05-09T09:30:57.981Z,19.50
2024-05-09T09:32:57.979Z,19.50
2024-05-09T09:35:00.830Z,18.80
2024-05-09T09:36:59.706Z,19.20
2024-05-09T09:38:57.840Z,19.20
2024-05-09T09:40:57.813Z,19.20
2024-05-09T09:42:57.982Z,19.20
2024-05-09T09:45:04.443Z,19.20
2024-05-09T09:46:57.934Z,19.20
2024-05-09T09:49:00.548Z,19.20
2024-05-09T09:50:57.818Z,19.20
2024-05-09T09:52:57.878Z,17.20
2024-05-09T09:54:57.903Z,17.20
2024-05-09T09:56:57.962Z,18.70
2024-05-09T09:58:57.879Z,18.70
2024-05-09T10:01:02.021Z,18.70
2024-05-09T10:02:58.006Z,18.70
2024-05-09T10:04:58.014Z,17.00
2024-05-09T10:06:58.023Z,17.00
2024-05-09T10:09:00.474Z,17.00
2024-05-09T10:10:57.922Z,17.70
2024-05-09T10:12:57.977Z,17.70
2024-05-09T10:14:57.862Z,17.70
2024-05-09T10:16:57.948Z,18.00
2024-05-09T10:18:58.575Z,18.00
2024-05-09T10:20:58.215Z,18.50
2024-05-09T10:23:01.082Z,17.80
2024-05-09T10:24:57.926Z,17.80
2024-05-09T10:26:58.324Z,17.80
2024-05-09T10:28:57.953Z,17.80
2024-05-09T10:30:58.769Z,17.80
2024-05-09T10:32:57.920Z,16.80
2024-05-09T10:34:58.131Z,16.40
2024-05-09T10:36:57.928Z,16.40
2024-05-09T10:38:57.876Z,16.40
2024-05-09T10:40:58.091Z,16.40
2024-05-09T10:42:57.909Z,16.70
2024-05-09T10:44:57.989Z,16.70
2024-05-09T10:46:57.888Z,16.70
2024-05-09T10:48:58.115Z,16.70
2024-05-09T10:50:57.823Z,16.70
2024-05-09T10:54:01.075Z,16.20
2024-05-09T10:55:57.935Z,16.20
2024-05-09T10:57:58.028Z,16.20
2024-05-09T10:59:57.862Z,16.20
2024-05-09T11:01:58.057Z,16.20
2024-05-09T11:03:58.020Z,16.20
2024-05-09T11:05:58.040Z,16.20
2024-05-09T11:07:58.264Z,16.20
2024-05-09T11:09:57.984Z,16.20
2024-05-09T11:11:57.850Z,16.20
2024-05-09T11:13:58.091Z,16.50
2024-05-09T11:15:58.164Z,17.10
2024-05-09T11:17:57.959Z,17.90
2024-05-09T11:19:58.417Z,17.90
2024-05-09T11:21:58.239Z,17.90
2024-05-09T11:23:57.924Z,17.90
2024-05-09T11:25:58.025Z,17.90
2024-05-09T11:27:58.168Z,17.40
2024-05-09T11:29:58.140Z,17.40
2024-05-09T11:31:57.921Z,17.40
2024-05-09T11:33:57.979Z,17.40
2024-05-09T11:36:00.597Z,17.40
2024-05-09T11:37:57.987Z,17.40
2024-05-09T11:40:00.972Z,17.40
2024-05-09T11:41:58.068Z,18.70
2024-05-09T11:43:57.904Z,18.70
2024-05-09T11:45:58.110Z,18.70
2024-05-09T11:47:58.090Z,18.70
2024-05-09T11:49:58.287Z,18.70
2024-05-09T11:51:57.947Z,19.20
2024-05-09T11:53:58.218Z,19.20
2024-05-09T11:56:02.301Z,19.20
2024-05-09T11:57:58.107Z,19.20
2024-05-09T11:59:58.304Z,19.20
2024-05-09T12:02:00.996Z,19.20
2024-05-09T12:04:02.547Z,18.40
2024-05-09T12:05:58.353Z,18.40
2024-05-09T12:08:00.873Z,18.40
2024-05-09T12:09:58.074Z,18.40
2024-05-09T12:11:58.994Z,18.40
2024-05-09T12:16:01.198Z,18.40
2024-05-09T12:21:58.226Z,17.60
2024-05-09T12:26:21.461Z,17.60
2024-05-09T12:28:21.730Z,17.30
2024-05-09T12:30:32.243Z,17.30
2024-05-09T12:32:18.363Z,17.70
2024-05-09T12:34:21.108Z,18.20
2024-05-09T12:36:18.279Z,18.30
2024-05-09T12:37:32.326Z,18.30
2024-05-09T12:40:26.568Z,18.30
2024-05-09T12:42:26.654Z,18.30
2024-05-09T12:44:18.362Z,18.70
2024-05-09T12:46:18.760Z,18.10
2024-05-09T12:48:18.680Z,18.10
2024-05-09T12:50:25.011Z,18.10
2024-05-09T12:52:23.188Z,19.20
2024-05-09T12:54:18.403Z,19.20
2024-05-09T12:56:18.416Z,19.80
2024-05-09T12:58:18.572Z,19.80
2024-05-09T13:00:24.026Z,19.80
2024-05-09T13:02:18.650Z,19.30
2024-05-09T13:04:18.514Z,19.30
2024-05-09T13:06:18.573Z,19.30
2024-05-09T13:08:18.543Z,19.30
2024-05-09T13:10:25.635Z,18.40
2024-05-09T13:12:18.383Z,18.80
2024-05-09T13:14:18.338Z,18.80
2024-05-09T13:16:19.044Z,18.80
2024-05-09T13:18:18.406Z,18.80
2024-05-09T13:20:26.169Z,20.10
2024-05-09T13:22:18.341Z,20.10
2024-05-09T13:24:21.583Z,20.10
2024-05-09T13:26:18.487Z,20.10
2024-05-09T13:28:21.317Z,20.10
2024-05-09T13:30:30.026Z,20.10
2024-05-09T13:32:18.467Z,20.10
2024-05-09T13:34:18.412Z,19.90
2024-05-09T13:36:18.536Z,19.90
2024-05-09T13:38:18.814Z,19.60
2024-05-09T13:40:29.884Z,19.50
2024-05-09T13:42:18.350Z,19.50
2024-05-09T13:44:18.367Z,19.50
2024-05-09T13:46:19.674Z,19.20
2024-05-09T13:48:18.496Z,19.20
2024-05-09T13:50:27.722Z,19.70
2024-05-09T13:52:18.632Z,19.80
2024-05-09T13:54:21.935Z,19.80
2024-05-09T13:56:18.360Z,19.80
2024-05-09T13:58:18.553Z,19.80
2024-05-09T14:00:37.638Z,18.90
2024-05-09T14:02:18.619Z,18.90
2024-05-09T14:04:18.786Z,18.90
2024-05-09T14:06:20.531Z,18.00
2024-05-09T14:08:18.421Z,17.60
2024-05-09T14:10:23.400Z,17.50
2024-05-09T14:12:18.460Z,17.50
2024-05-09T14:14:18.522Z,17.10
2024-05-09T14:16:18.456Z,17.10
2024-05-09T14:18:18.680Z,17.10
2024-05-09T14:20:28.235Z,17.10
2024-05-09T14:22:18.838Z,17.10
2024-05-09T14:24:18.403Z,17.10
2024-05-09T14:26:18.410Z,17.10
2024-05-09T14:28:18.660Z,19.00
2024-05-09T14:30:30.426Z,19.30
2024-05-09T14:32:18.641Z,19.30
2024-05-09T14:34:18.635Z,19.30
2024-05-09T14:36:18.450Z,19.30
2024-05-09T14:38:18.430Z,19.30
2024-05-09T14:40:29.801Z,19.30
2024-05-09T14:42:18.569Z,19.30
2024-05-09T14:44:18.469Z,19.30
2024-05-09T14:46:19.390Z,19.30
2024-05-09T14:48:18.511Z,19.30
2024-05-09T14:50:27.384Z,19.30
2024-05-09T14:52:18.537Z,18.60
2024-05-09T14:54:18.413Z,18.60
2024-05-09T14:56:18.495Z,18.70
2024-05-09T14:58:18.566Z,18.70
2024-05-09T15:00:26.093Z,18.70
2024-05-09T15:02:23.446Z,19.30
2024-05-09T15:04:18.832Z,19.30
2024-05-09T15:06:18.888Z,19.30
2024-05-09T15:08:19.003Z,19.30
2024-05-09T15:10:26.580Z,19.30
2024-05-09T15:12:18.417Z,19.30
2024-05-09T15:14:18.430Z,19.30
2024-05-09T15:16:18.725Z,19.30
2024-05-09T15:18:18.738Z,19.30
2024-05-09T15:20:26.795Z,18.50
2024-05-09T15:22:18.450Z,18.20
2024-05-09T15:24:18.490Z,18.20
2024-05-09T15:26:19.069Z,18.20
2024-05-09T15:28:18.911Z,18.20
2024-05-09T15:30:24.424Z,18.20
2024-05-09T15:32:18.463Z,17.90
2024-05-09T15:34:18.456Z,17.90
2024-05-09T15:36:18.693Z,17.90
2024-05-09T15:38:18.758Z,17.90
2024-05-09T15:40:25.946Z,17.90
2024-05-09T15:42:18.485Z,17.90
2024-05-09T15:44:18.430Z,17.90
2024-05-09T15:46:23.740Z,17.90
2024-05-09T15:48:18.846Z,17.90
2024-05-09T15:50:27.696Z,17.90
2024-05-09T15:52:18.527Z,17.90
2024-05-09T15:54:18.468Z,18.20
2024-05-09T15:56:18.550Z,18.20
2024-05-09T15:58:21.319Z,18.20
2024-05-09T16:00:25.248Z,18.20
2024-05-09T16:02:19.250Z,18.20
2024-05-09T16:04:21.668Z,18.20
2024-05-09T16:06:18.899Z,18.20
2024-05-09T16:08:18.468Z,18.20
2024-05-09T16:11:19.141Z,18.20
2024-05-09T16:13:18.768Z,18.20
2024-05-09T16:15:18.490Z,18.20
2024-05-09T16:17:18.705Z,18.20
2024-05-09T16:19:18.603Z,18.20
2024-05-09T16:21:19.068Z,18.20
2024-05-09T16:23:18.604Z,18.20
2024-05-09T16:25:18.950Z,18.20
2024-05-09T16:27:18.769Z,18.20
2024-05-09T16:29:18.506Z,18.20
2024-05-09T16:31:18.805Z,18.20
2024-05-09T16:33:19.041Z,17.50
2024-05-09T16:35:21.445Z,17.60
2024-05-09T16:37:18.774Z,17.60
2024-05-09T16:39:18.528Z,17.60
2024-05-09T16:41:19.930Z,17.60
2024-05-09T16:43:18.718Z,17.80
2024-05-09T16:45:24.517Z,17.80
2024-05-09T16:47:18.795Z,17.80
2024-05-09T16:49:18.491Z,17.80
2024-05-09T16:51:18.934Z,17.80
2024-05-09T16:53:20.430Z,17.80
2024-05-09T16:55:19.086Z,17.80
2024-05-09T16:57:18.465Z,17.80
2024-05-09T16:59:18.739Z,17.80
2024-05-09T17:01:19.232Z,17.80
2024-05-09T17:03:18.663Z,17.80
2024-05-09T17:05:19.118Z,17.80
2024-05-09T17:07:18.730Z,17.80
2024-05-09T17:09:20.038Z,17.80
2024-05-09T17:11:18.808Z,17.80
2024-05-09T17:13:21.728Z,17.80
2024-05-09T17:15:18.553Z,17.80
2024-05-09T17:17:18.641Z,17.80
2024-05-09T17:19:18.662Z,17.80
2024-05-09T17:21:19.362Z,17.80
2024-05-09T17:23:18.600Z,17.80
2024-05-09T17:25:18.785Z,17.80
2024-05-09T17:27:18.713Z,17.80
2024-05-09T17:29:18.902Z,17.80
2024-05-09T17:31:19.606Z,17.80
2024-05-09T17:33:18.804Z,17.80
2024-05-09T17:35:18.906Z,17.80
2024-05-09T17:37:21.850Z,17.80
2024-05-09T17:39:18.652Z,17.80
2024-05-09T17:41:18.937Z,17.80
2024-05-09T17:43:18.733Z,17.80
2024-05-09T17:45:18.671Z,17.80
2024-05-09T17:47:18.627Z,17.80
2024-05-09T17:49:18.642Z,17.80
2024-05-09T17:51:18.700Z,17.80
2024-05-09T17:53:18.803Z,17.80
2024-05-09T17:55:18.767Z,17.80
2024-05-09T17:57:18.545Z,17.80
2024-05-09T17:59:22.525Z,17.80
2024-05-09T18:01:18.738Z,17.80
2024-05-09T18:03:18.644Z,17.80
2024-05-09T18:05:18.672Z,17.80
2024-05-09T18:07:18.615Z,17.80
2024-05-09T18:09:21.421Z,17.80
2024-05-09T18:11:18.650Z,17.80
2024-05-09T18:13:18.651Z,17.80
2024-05-09T18:15:18.575Z,17.80
2024-05-09T18:17:18.626Z,17.80
2024-05-09T18:19:18.802Z,17.80
2024-05-09T18:21:18.608Z,17.80
2024-05-09T18:23:19.209Z,17.80
2024-05-09T18:25:24.339Z,17.80
2024-05-09T18:27:23.126Z,17.80
2024-05-09T18:29:21.655Z,17.80
2024-05-09T18:31:18.636Z,17.80
2024-05-09T18:33:19.661Z,17.80
2024-05-09T18:35:18.723Z,17.80
2024-05-09T18:37:18.746Z,17.80
2024-05-09T18:39:23.640Z,17.80
2024-05-09T18:41:18.640Z,17.80
2024-05-09T18:43:20.203Z,17.80
2024-05-09T18:45:18.733Z,17.80
2024-05-09T18:47:20.630Z,17.80
2024-05-09T18:49:18.914Z,17.80
2024-05-09T18:53:32.118Z,17.80
2024-05-09T18:55:31.159Z,17.80
2024-05-09T18:57:31.084Z,17.80
2024-05-09T18:59:31.803Z,17.80
2024-05-09T19:01:34.076Z,17.80
2024-05-09T19:03:31.318Z,17.80
2024-05-09T19:05:34.237Z,17.80
2024-05-09T19:07:31.209Z,17.80
2024-05-09T19:09:35.174Z,17.80
2024-05-09T19:11:31.142Z,17.80
2024-05-09T19:13:31.347Z,17.80
2024-05-09T19:15:31.456Z,17.80
2024-05-09T19:17:31.183Z,17.80
2024-05-09T19:19:31.226Z,17.80
2024-05-09T19:21:31.127Z,17.80
2024-05-09T19:23:35.253Z,17.80
2024-05-09T19:25:31.215Z,17.80
2024-05-09T19:27:31.589Z,17.80
2024-05-09T19:29:31.103Z,17.80
2024-05-09T19:31:33.989Z,17.80
2024-05-09T19:33:31.726Z,17.80
2024-05-09T19:35:31.156Z,11.00
2024-05-09T19:37:31.756Z,11.00
2024-05-09T19:39:31.135Z,10.80
2024-05-09T19:41:31.214Z,10.80
2024-05-09T19:43:33.767Z,10.80
2024-05-09T19:45:31.299Z,10.80
2024-05-09T19:47:31.301Z,10.80
2024-05-09T19:49:31.290Z,10.80
2024-05-09T19:51:31.245Z,10.80
2024-05-09T19:53:31.817Z,10.80
2024-05-09T19:55:31.108Z,10.80
2024-05-09T19:57:34.204Z,10.80
2024-05-09T19:59:31.073Z,10.80
2024-05-09T20:01:31.221Z,10.80
2024-05-09T20:03:31.799Z,10.80
2024-05-09T20:05:31.503Z,10.80
2024-05-09T20:07:35.717Z,10.80
2024-05-09T20:09:31.124Z,10.80
2024-05-09T20:11:34.184Z,10.80
2024-05-09T20:13:31.262Z,10.80
2024-05-09T20:15:31.244Z,10.80
2024-05-09T20:17:31.239Z,10.80
2024-05-09T20:19:31.364Z,10.80
2024-05-09T20:21:31.188Z,10.80
2024-05-09T20:23:31.214Z,10.80
2024-05-09T20:25:31.253Z,10.80
2024-05-09T20:27:31.434Z,10.80
2024-05-09T20:29:31.180Z,10.80
2024-05-09T20:31:31.250Z,10.80
2024-05-09T20:33:31.217Z,10.80
2024-05-09T20:35:31.169Z,10.80
2024-05-09T20:37:31.164Z,10.80
2024-05-09T20:39:34.435Z,10.80
2024-05-09T20:41:33.010Z,10.80
2024-05-09T20:43:45.881Z,10.80
2024-05-09T20:46:31.221Z,10.80
2024-05-09T20:48:34.041Z,10.80
2024-05-09T20:50:38.033Z,10.80
2024-05-09T20:51:42.922Z,10.80
2024-05-09T20:54:32.580Z,10.80
2024-05-09T20:56:33.753Z,10.80
2024-05-09T20:58:31.251Z,10.80
2024-05-09T21:00:38.911Z,10.80
2024-05-09T21:01:45.578Z,10.80
2024-05-09T21:04:31.512Z,10.80
2024-05-09T21:06:31.173Z,10.80
2024-05-09T21:08:34.121Z,10.80
2024-05-09T21:10:33.424Z,10.80
2024-05-09T21:12:31.315Z,10.80
2024-05-09T21:14:31.156Z,10.80
2024-05-09T21:15:41.304Z,10.80
2024-05-09T21:18:31.372Z,10.80
2024-05-09T21:20:32.814Z,10.80
2024-05-09T21:22:36.146Z,10.80
2024-05-09T21:24:31.194Z,10.80
2024-05-09T21:26:31.134Z,10.80
2024-05-09T21:28:31.460Z,10.80
2024-05-09T21:30:38.795Z,10.80
2024-05-09T21:32:31.265Z,10.80
2024-05-09T21:34:31.224Z,10.80
2024-05-09T21:36:31.188Z,10.80
2024-05-09T21:38:31.228Z,10.80
2024-05-09T21:40:34.637Z,10.80
2024-05-09T21:42:31.190Z,10.80
2024-05-09T21:44:34.180Z,10.80
2024-05-09T21:46:31.343Z,10.80
2024-05-09T21:48:33.983Z,10.80
2024-05-09T21:50:40.280Z,10.80
2024-05-09T21:52:31.222Z,10.80
2024-05-09T21:54:31.188Z,10.80
2024-05-09T21:56:31.849Z,10.80
2024-05-09T21:58:31.438Z,10.80
2024-05-09T22:00:37.506Z,10.80
2024-05-09T22:02:31.337Z,10.80
2024-05-09T22:04:31.364Z,10.80
2024-05-09T22:06:31.199Z,10.80
2024-05-09T22:08:31.182Z,10.80
2024-05-09T22:10:34.587Z,10.80
2024-05-09T22:12:31.234Z,10.80
2024-05-09T22:14:33.100Z,8.40
2024-05-09T22:16:31.282Z,8.40
2024-05-09T22:18:34.237Z,8.40
2024-05-09T22:20:37.009Z,8.40
2024-05-09T22:22:31.283Z,8.40
2024-05-09T22:24:34.607Z,8.40
2024-05-09T22:26:31.219Z,8.40
2024-05-09T22:28:31.318Z,8.40
2024-05-09T22:30:36.074Z,8.40
2024-05-09T22:32:31.284Z,8.40
2024-05-09T22:34:31.358Z,8.40
2024-05-09T22:36:31.171Z,8.40
2024-05-09T22:38:31.248Z,8.40
2024-05-09T22:40:41.718Z,8.40
2024-05-09T22:42:31.675Z,8.40
2024-05-09T22:44:31.219Z,8.40
2024-05-09T22:46:31.309Z,8.40
2024-05-09T22:48:31.653Z,8.40
2024-05-09T22:50:33.411Z,8.40
2024-05-09T22:52:31.294Z,8.40
2024-05-09T22:54:31.268Z,8.40
2024-05-09T22:56:31.271Z,8.40
2024-05-09T22:58:31.277Z,8.40
2024-05-09T23:00:32.760Z,8.40
2024-05-09T23:02:31.282Z,8.30
2024-05-09T23:04:31.323Z,8.30
2024-05-09T23:06:34.889Z,8.30
2024-05-09T23:08:31.431Z,8.30
2024-05-09T23:10:35.988Z,8.30
2024-05-09T23:12:31.210Z,8.30
2024-05-09T23:14:31.303Z,8.30
2024-05-09T23:16:31.486Z,8.30
2024-05-09T23:18:31.307Z,8.30
2024-05-09T23:20:38.346Z,8.30
2024-05-09T23:22:31.344Z,8.30
2024-05-09T23:24:37.312Z,8.30
2024-05-09T23:26:31.388Z,8.30
2024-05-09T23:28:31.446Z,7.80
2024-05-09T23:30:37.555Z,7.80
2024-05-09T23:32:31.464Z,7.80
2024-05-09T23:34:31.349Z,7.80
2024-05-09T23:36:31.285Z,7.80
2024-05-09T23:38:31.418Z,7.80
2024-05-09T23:40:38.482Z,7.80
2024-05-09T23:42:31.294Z,7.80
2024-05-09T23:44:31.329Z,7.80
2024-05-09T23:46:33.868Z,7.80
2024-05-09T23:48:31.428Z,7.80
2024-05-09T23:50:40.859Z,7.80
2024-05-09T23:52:31.287Z,7.80
2024-05-09T23:54:31.487Z,7.80
2024-05-09T23:56:33.940Z,7.80
2024-05-09T23:58:37.236Z,7.80
